Terminal Aerodrome Forecast
Issued by NWS

Home | Current Version | Previous Version | Text Only | Print | Product List | Glossary On
Versions: 1 2 3 4 5 6 7 8 9 10 11 12 13 14 15 16 17 18 19 20 21
000
FTUS41 KPBZ 310900 AAA
TAFAGC
TAF AMD
KAGC 310922Z 3109/0106 VRB03KT 4SM BR BKN040
     FM311400 21010G18KT P6SM SCT080=

USA.gov is the U.S. government's official web portal to all federal, state and local government web resources and services.